Time;durP1;ratioP1;P1;durP2;ratioP2;P2;SDS_P1;SDS_P2;PMS_P1;PMS_P2;Temp;Humidity;BMP_temperature;BMP_pressure;BME280_temperature;BME280_humidity;BME280_pressure;Samples;Min_cycle;Max_cycle;Signal;HPM_P1;HPM_P2
2023/07/02 00:01:49;;;;;;;13.45;8.45;;;15.30;99.90;;;19.09;100.00;99739.47;4992416;28;20038;-76
2023/07/02 00:04:16;;;;;;;10.93;8.50;;;15.30;99.90;;;19.28;100.00;99729.59;4992395;28;20130;-77
2023/07/02 00:06:46;;;;;;;13.07;8.00;;;15.30;99.90;;;19.54;100.00;99741.94;4993163;28;20034;-78
2023/07/02 00:09:13;;;;;;;11.25;7.47;;;15.30;99.90;;;19.38;100.00;99733.03;4992501;28;20035;-78
2023/07/02 00:11:40;;;;;;;12.15;6.78;;;15.30;99.90;;;19.04;100.00;99722.16;4992469;28;20030;-78
2023/07/02 00:14:08;;;;;;;10.00;6.35;;;15.40;99.90;;;19.29;100.00;99715.44;4992722;28;20039;-78
2023/07/02 00:16:38;;;;;;;7.50;6.70;;;15.30;99.90;;;19.46;100.00;99717.69;4983821;28;20454;-78
2023/07/02 00:19:04;;;;;;;11.38;6.10;;;15.30;99.90;;;19.23;100.00;99725.78;5000701;28;20042;-78
2023/07/02 00:21:33;;;;;;;14.30;6.55;;;15.30;99.90;;;19.36;100.00;99710.38;4993756;28;20056;-78
2023/07/02 00:24:00;;;;;;;9.38;5.57;;;15.30;99.90;;;19.29;100.00;99709.91;4992140;28;20428;-78
2023/07/02 00:26:27;;;;;;;8.73;5.40;;;15.30;99.90;;;19.18;100.00;99723.06;4990088;28;20113;-78
2023/07/02 00:28:54;;;;;;;9.25;5.80;;;15.20;99.90;;;19.25;100.00;99720.78;4990174;28;20050;-78
2023/07/02 00:31:21;;;;;;;8.03;5.10;;;15.20;99.90;;;19.08;100.00;99721.25;4991554;28;20354;-77
2023/07/02 00:33:47;;;;;;;10.63;6.15;;;15.20;99.90;;;19.23;100.00;99711.13;4977856;28;20322;-78
2023/07/02 00:36:16;;;;;;;9.77;5.10;;;15.20;99.90;;;19.33;100.00;99721.22;5004241;28;20027;-78
2023/07/02 00:38:44;;;;;;;7.78;5.32;;;15.10;99.90;;;19.15;100.00;99739.44;4998964;28;20034;-78
2023/07/02 00:41:11;;;;;;;10.27;5.05;;;15.10;99.90;;;19.03;100.00;99723.28;4995221;28;20030;-76
2023/07/02 00:43:43;;;;;;;10.07;5.13;;;15.10;99.90;;;19.03;100.00;99735.13;5005769;28;20034;-77
2023/07/02 00:46:19;;;;;;;9.50;5.07;;;15.10;99.90;;;19.04;100.00;99742.31;4996139;28;20096;-77
2023/07/02 00:48:55;;;;;;;9.32;5.43;;;15.00;99.90;;;18.74;100.00;99747.06;4994281;28;20027;-77
2023/07/02 00:51:27;;;;;;;11.25;5.35;;;15.00;99.90;;;18.77;100.00;99738.19;4983389;28;20035;-77
2023/07/02 00:53:56;;;;;;;12.38;5.55;;;15.00;99.90;;;18.70;100.00;99732.19;4994478;28;20122;-77
2023/07/02 00:56:23;;;;;;;8.18;5.68;;;14.90;99.90;;;18.74;100.00;99726.91;4995844;28;20030;-77
2023/07/02 00:58:53;;;;;;;8.55;5.50;;;14.80;99.90;;;18.72;100.00;99735.50;4996192;28;20065;-77
2023/07/02 01:01:22;;;;;;;14.30;5.93;;;14.80;99.90;;;18.57;100.00;99732.91;4977782;28;20077;-77
2023/07/02 01:04:02;;;;;;;9.70;5.60;;;14.70;99.90;;;18.51;100.00;99738.47;4991562;28;20235;-77
2023/07/02 01:06:40;;;;;;;8.35;4.78;;;14.60;99.90;;;18.52;100.00;99736.53;4995288;28;20034;-77
2023/07/02 01:09:07;;;;;;;9.57;5.75;;;14.60;99.90;;;18.43;100.00;99736.34;4977866;28;20046;-77
2023/07/02 01:11:36;;;;;;;10.77;4.90;;;14.60;99.90;;;18.21;100.00;99728.56;4993067;28;20072;-77
2023/07/02 01:14:16;;;;;;;8.52;5.13;;;14.50;99.90;;;18.26;100.00;99723.81;4995193;28;20038;-80
2023/07/02 01:16:44;;;;;;;12.02;5.78;;;14.50;99.90;;;18.19;100.00;99695.72;4993240;28;20037;-77
2023/07/02 01:19:44;;;;;;;8.13;5.07;;;14.40;99.90;;;18.14;100.00;99717.88;4988182;28;20076;-77
2023/07/02 01:22:10;;;;;;;10.57;4.95;;;14.30;99.90;;;17.72;100.00;99711.00;4994733;28;20050;-76
2023/07/02 01:24:39;;;;;;;9.20;5.10;;;14.30;99.90;;;17.93;100.00;99714.44;4995318;28;20092;-78
2023/07/02 01:27:05;;;;;;;9.65;5.30;;;14.30;99.90;;;17.97;100.00;99705.28;4999468;28;20058;-77
2023/07/02 01:29:30;;;;;;;9.88;5.68;;;14.20;99.90;;;17.90;100.00;99703.97;4976845;28;20100;-78
2023/07/02 01:31:57;;;;;;;8.35;6.40;;;14.20;99.90;;;17.84;100.00;99705.97;4995177;28;20034;-77
2023/07/02 01:34:23;;;;;;;8.40;5.75;;;14.20;99.90;;;17.82;100.00;99702.66;5009460;28;20030;-77
2023/07/02 01:36:49;;;;;;;11.18;6.20;;;14.20;99.90;;;17.74;100.00;99706.84;4994721;28;20507;-78
2023/07/02 01:39:16;;;;;;;11.23;5.70;;;14.20;99.90;;;17.77;100.00;99680.63;5001402;28;20048;-78
2023/07/02 01:41:53;;;;;;;11.80;6.32;;;14.20;99.90;;;17.87;100.00;99705.38;4994668;28;20038;-78
2023/07/02 01:44:20;;;;;;;8.82;5.45;;;14.10;99.90;;;17.76;100.00;99710.16;4991840;28;20037;-78
2023/07/02 01:46:48;;;;;;;9.15;5.78;;;14.10;99.90;;;17.83;100.00;99715.34;5007002;28;20041;-77
2023/07/02 01:49:18;;;;;;;10.88;5.97;;;14.10;99.90;;;17.81;100.00;99712.88;5006924;28;20060;-77
2023/07/02 01:51:49;;;;;;;13.30;5.82;;;14.00;99.90;;;17.75;100.00;99711.25;5009032;28;20591;-77
2023/07/02 01:54:14;;;;;;;11.57;5.85;;;14.00;99.90;;;17.76;100.00;99725.88;4994531;28;20433;-77
2023/07/02 01:56:41;;;;;;;9.15;5.90;;;13.90;99.90;;;17.71;100.00;99723.16;4994766;28;20492;-77
2023/07/02 01:59:07;;;;;;;8.82;5.95;;;13.90;99.90;;;17.66;100.00;99724.03;4993581;28;20045;-78
2023/07/02 02:01:32;;;;;;;8.35;6.25;;;14.00;99.90;;;17.73;100.00;99731.97;4994016;28;20039;-78
2023/07/02 02:03:59;;;;;;;12.32;6.10;;;13.90;99.90;;;17.67;100.00;99732.00;5000922;28;20548;-78
2023/07/02 02:06:24;;;;;;;10.82;6.72;;;14.00;99.90;;;17.60;100.00;99731.50;4994411;28;20560;-78
2023/07/02 02:08:50;;;;;;;9.48;6.00;;;14.00;99.90;;;17.79;100.00;99733.59;4992559;28;20034;-78
2023/07/02 02:11:16;;;;;;;10.43;5.93;;;14.10;99.90;;;17.75;100.00;99732.50;5018019;28;20034;-79
2023/07/02 02:13:41;;;;;;;10.30;6.00;;;14.10;99.90;;;17.70;100.00;99727.84;5014119;28;20104;-78
2023/07/02 02:16:07;;;;;;;9.68;5.97;;;14.10;99.90;;;17.71;100.00;99728.66;4991778;28;20038;-79
2023/07/02 02:18:34;;;;;;;10.98;6.13;;;14.20;99.90;;;17.84;100.00;99741.81;4991556;28;20042;-80
2023/07/02 02:21:00;;;;;;;12.23;6.25;;;14.20;99.90;;;17.70;100.00;99738.88;4974317;28;20038;-79
2023/07/02 02:23:26;;;;;;;11.70;6.72;;;14.30;99.90;;;17.89;100.00;99746.44;4957398;28;20035;-78
2023/07/02 02:25:51;;;;;;;9.95;6.03;;;14.30;99.90;;;17.93;100.00;99728.22;4974660;28;20034;-78
2023/07/02 02:28:17;;;;;;;11.68;6.75;;;14.40;99.90;;;18.06;100.00;99744.16;4974532;28;20046;-79
2023/07/02 02:30:43;;;;;;;9.80;6.60;;;14.40;99.90;;;18.03;100.00;99735.59;4980458;28;20356;-78
2023/07/02 02:33:09;;;;;;;12.45;6.38;;;14.40;99.90;;;18.07;100.00;99747.75;4974518;28;20046;-79
2023/07/02 02:35:35;;;;;;;12.15;6.68;;;14.50;99.90;;;18.04;100.00;99746.38;4957301;28;20121;-78
2023/07/02 02:38:04;;;;;;;11.70;6.78;;;14.50;99.90;;;18.21;100.00;99743.19;4956532;28;20065;-78
2023/07/02 02:40:30;;;;;;;11.18;6.60;;;14.50;99.90;;;18.04;100.00;99740.84;4975570;28;20038;-78
2023/07/02 02:42:56;;;;;;;12.57;6.22;;;14.50;99.90;;;18.04;100.00;99740.03;4972120;28;20027;-77
2023/07/02 02:45:23;;;;;;;9.73;7.22;;;14.60;99.90;;;17.98;100.00;99737.28;4973336;28;20034;-77
2023/07/02 02:47:49;;;;;;;12.15;6.70;;;14.60;99.90;;;18.03;100.00;99741.97;4961034;28;20038;-78
2023/07/02 02:50:15;;;;;;;11.68;6.60;;;14.60;99.90;;;18.06;100.00;99738.63;4957076;28;20460;-78
2023/07/02 02:52:41;;;;;;;11.52;6.90;;;14.60;99.90;;;18.10;100.00;99744.41;4979508;28;20038;-78
2023/07/02 02:55:10;;;;;;;13.43;6.68;;;14.60;99.90;;;18.19;100.00;99739.88;4977229;28;20062;-78
2023/07/02 02:57:36;;;;;;;15.60;6.82;;;14.60;99.90;;;18.16;100.00;99723.91;4974589;28;20050;-78
2023/07/02 03:00:04;;;;;;;12.07;7.22;;;14.50;99.90;;;18.05;100.00;99738.94;4961489;28;20121;-78
2023/07/02 03:02:30;;;;;;;14.75;7.22;;;14.50;99.90;;;18.23;100.00;99737.38;4972790;28;20390;-79
2023/07/02 03:04:56;;;;;;;10.48;6.82;;;14.50;99.90;;;18.30;100.00;99734.25;4972865;28;20035;-78
2023/07/02 03:07:22;;;;;;;10.50;7.85;;;14.50;99.90;;;18.26;100.00;99729.31;4972745;28;20386;-79
2023/07/02 03:09:48;;;;;;;9.68;7.57;;;14.50;99.90;;;18.28;100.00;99739.25;4989958;28;20042;-79
2023/07/02 03:12:14;;;;;;;13.50;7.32;;;14.50;99.90;;;18.01;100.00;99726.78;4971288;28;20049;-78
2023/07/02 03:14:40;;;;;;;9.30;6.95;;;14.50;99.90;;;18.42;100.00;99726.44;4977005;28;20065;-79
2023/07/02 03:17:05;;;;;;;12.18;7.80;;;14.50;99.90;;;18.40;100.00;99732.22;4973837;28;20071;-78
2023/07/02 03:19:31;;;;;;;13.75;8.30;;;14.50;99.90;;;18.50;100.00;99728.53;4992575;28;20100;-79
2023/07/02 03:21:57;;;;;;;11.80;7.75;;;14.60;99.90;;;18.40;100.00;99731.41;5008957;28;20052;-79
2023/07/02 03:24:22;;;;;;;11.25;7.82;;;14.60;99.90;;;18.41;100.00;99733.06;5002626;28;20050;-79
2023/07/02 03:26:48;;;;;;;13.48;7.93;;;14.60;99.90;;;18.52;100.00;99731.81;4992122;28;20030;-79
2023/07/02 03:29:15;;;;;;;10.50;7.40;;;14.60;99.90;;;18.57;100.00;99735.69;4990144;28;20093;-79
2023/07/02 03:31:41;;;;;;;11.18;7.85;;;14.60;99.90;;;18.61;100.00;99742.25;4983006;28;20030;-79
2023/07/02 03:34:09;;;;;;;10.63;7.32;;;14.60;99.90;;;18.61;100.00;99739.50;4994038;28;20088;-79
2023/07/02 03:36:36;;;;;;;;;;;14.60;99.90;;;18.44;100.00;99724.19;5000498;28;20064;-78
2023/07/02 03:39:02;;;;;;;13.18;7.65;;;14.60;99.90;;;18.52;100.00;99734.59;5003981;28;20349;-78
2023/07/02 03:41:29;;;;;;;11.75;7.85;;;14.60;99.90;;;18.49;100.00;99732.41;5008801;28;20073;-78
2023/07/02 03:43:55;;;;;;;15.52;8.20;;;14.60;99.90;;;18.52;100.00;99736.53;5014382;28;20089;-78
2023/07/02 03:46:21;;;;;;;10.88;7.68;;;14.70;99.90;;;18.82;100.00;99749.16;4998823;28;20468;-79
2023/07/02 03:48:46;;;;;;;12.88;7.90;;;14.70;99.90;;;18.82;100.00;99743.66;5000232;28;20056;-78
2023/07/02 03:51:14;;;;;;;17.45;8.27;;;14.70;99.90;;;18.83;100.00;99739.78;5000920;28;20050;-77
2023/07/02 03:53:43;;;;;;;11.27;8.32;;;14.70;99.90;;;18.92;100.00;99733.59;5019964;28;20110;-78
2023/07/02 03:56:09;;;;;;;11.98;8.48;;;14.70;99.90;;;18.72;100.00;99732.72;5026931;28;20038;-78
2023/07/02 03:58:35;;;;;;;15.40;7.45;;;14.70;99.90;;;18.87;100.00;99736.44;5025725;28;20046;-78
2023/07/02 04:01:01;;;;;;;15.07;8.35;;;14.70;99.90;;;18.70;100.00;99737.72;5003411;28;20494;-78
2023/07/02 04:03:26;;;;;;;11.45;7.85;;;14.70;99.90;;;18.86;100.00;99745.84;5007435;28;20045;-78
2023/07/02 04:05:52;;;;;;;11.45;8.63;;;14.70;99.90;;;18.73;100.00;99744.63;5005283;28;20045;-78
2023/07/02 04:08:20;;;;;;;14.95;8.57;;;14.70;99.90;;;18.85;100.00;99745.00;5010095;28;20046;-76
2023/07/02 04:10:48;;;;;;;17.55;8.95;;;14.70;99.90;;;18.74;100.00;99746.25;5014323;28;20044;-77
2023/07/02 04:13:13;;;;;;;14.32;9.10;;;14.70;99.90;;;18.42;100.00;99762.31;5002312;28;20111;-78
2023/07/02 04:15:39;;;;;;;12.60;9.38;;;14.60;99.90;;;18.41;100.00;99763.44;4996937;28;20486;-78
2023/07/02 04:18:06;;;;;;;17.33;11.55;;;14.60;99.90;;;18.49;100.00;99765.56;4997560;28;20038;-82
2023/07/02 04:20:32;;;;;;;14.70;12.03;;;14.70;99.90;;;18.26;100.00;99764.41;4997813;28;20072;-76
2023/07/02 04:22:58;;;;;;;16.73;12.48;;;14.70;99.90;;;18.37;100.00;99767.91;5017979;28;20033;-76
2023/07/02 04:25:25;;;;;;;16.50;12.00;;;14.70;99.90;;;18.12;100.00;99767.00;5018402;28;20137;-76
2023/07/02 04:27:56;;;;;;;16.10;11.55;;;14.60;99.90;;;18.19;100.00;99756.44;5021554;28;20106;-77
2023/07/02 04:30:22;;;;;;;17.00;11.85;;;14.50;99.90;;;18.17;100.00;99763.38;5017631;28;20039;-77
2023/07/02 04:32:47;;;;;;;15.40;10.57;;;14.50;99.90;;;18.15;100.00;99755.38;5001785;28;20038;-76
2023/07/02 04:35:13;;;;;;;17.05;10.60;;;14.40;99.90;;;18.40;100.00;99757.06;4996020;28;20042;-77
2023/07/02 04:37:39;;;;;;;21.30;10.43;;;14.40;99.90;;;18.32;100.00;99762.44;5003674;28;20038;-77
2023/07/02 04:40:12;;;;;;;16.67;10.30;;;14.30;99.90;;;18.15;100.00;99762.84;5005370;28;20038;-77
2023/07/02 04:42:46;;;;;;;16.00;9.63;;;14.30;99.90;;;18.26;100.00;99762.44;5011111;28;20037;-77
2023/07/02 04:45:15;;;;;;;16.92;9.27;;;14.30;99.90;;;18.32;100.00;99768.75;5015122;28;20038;-77
2023/07/02 04:47:46;;;;;;;17.65;9.15;;;14.20;99.90;;;18.21;100.00;99772.75;5016197;28;20038;-77
2023/07/02 04:50:12;;;;;;;16.48;8.30;;;14.20;99.90;;;18.08;100.00;99772.28;5017952;28;20044;-78
2023/07/02 04:52:38;;;;;;;18.15;9.18;;;14.10;99.90;;;17.93;100.00;99775.13;5013254;28;20042;-78
2023/07/02 04:55:05;;;;;;;16.23;9.25;;;14.00;99.90;;;17.91;100.00;99774.59;4980905;28;20034;-77
2023/07/02 04:57:32;;;;;;;14.75;8.90;;;14.00;99.90;;;17.80;100.00;99776.63;5005019;28;20045;-78
2023/07/02 04:59:57;;;;;;;16.45;9.20;;;14.00;99.90;;;17.93;100.00;99775.94;4996785;28;20061;-77
2023/07/02 05:02:23;;;;;;;17.55;9.40;;;13.90;99.90;;;17.82;100.00;99771.63;4996222;28;20034;-77
2023/07/02 05:04:49;;;;;;;18.90;9.60;;;13.90;99.90;;;17.87;100.00;99782.63;5006591;28;20026;-75
2023/07/02 05:07:16;;;;;;;18.23;9.70;;;13.90;99.90;;;17.86;100.00;99783.72;4999109;28;20498;-77
2023/07/02 05:09:42;;;;;;;15.82;9.20;;;13.90;99.90;;;18.01;100.00;99780.06;5000398;28;20041;-77
2023/07/02 05:12:09;;;;;;;16.90;9.43;;;13.90;99.90;;;18.06;100.00;99784.72;4995574;28;20030;-78
2023/07/02 05:14:34;;;;;;;18.40;10.60;;;14.00;99.90;;;17.89;100.00;99788.69;4995855;28;20041;-78
2023/07/02 05:17:00;;;;;;;17.38;10.20;;;14.00;99.90;;;17.90;100.00;99784.81;4996014;28;20038;-77
2023/07/02 05:19:26;;;;;;;19.35;11.27;;;14.00;99.90;;;17.97;100.00;99777.03;5000710;28;20145;-77
2023/07/02 05:21:52;;;;;;;20.10;12.18;;;14.00;99.90;;;18.05;100.00;99794.13;4995361;28;20061;-78
2023/07/02 05:24:17;;;;;;;17.15;11.98;;;14.10;99.90;;;18.05;100.00;99788.59;4980384;28;20049;-78
2023/07/02 05:26:43;;;;;;;23.40;13.60;;;14.10;99.90;;;17.92;100.00;99790.84;4997658;28;20041;-78
2023/07/02 05:29:09;;;;;;;19.08;12.38;;;14.20;99.90;;;18.04;100.00;99798.00;4986352;28;20311;-78
2023/07/02 05:31:35;;;;;;;21.30;12.20;;;14.20;99.90;;;18.15;100.00;99788.50;4990113;28;20478;-79
2023/07/02 05:34:01;;;;;;;19.33;12.27;;;14.30;99.90;;;18.14;100.00;99799.81;4997591;28;20053;-80
2023/07/02 05:36:27;;;;;;;19.85;11.27;;;14.30;99.90;;;18.30;100.00;99800.53;5003225;28;20032;-79
2023/07/02 05:38:53;;;;;;;17.98;10.95;;;14.30;99.90;;;18.36;100.00;99797.44;4998545;28;20869;-80
2023/07/02 05:41:20;;;;;;;20.10;10.75;;;14.40;99.90;;;18.35;100.00;99803.25;5002608;28;20038;-82
2023/07/02 05:43:46;;;;;;;16.60;10.70;;;14.50;99.90;;;18.66;100.00;99791.91;5009012;28;20045;-78
2023/07/02 05:46:13;;;;;;;15.30;9.35;;;14.60;99.90;;;18.55;100.00;99800.28;4998951;28;20043;-79
2023/07/02 05:48:40;;;;;;;18.08;9.13;;;14.70;99.90;;;18.47;100.00;99806.44;4977907;28;20663;-79
2023/07/02 05:51:07;;;;;;;22.52;9.65;;;14.70;99.90;;;18.53;100.00;99808.03;4986484;28;20479;-78
2023/07/02 05:53:33;;;;;;;17.75;9.27;;;14.70;99.90;;;18.54;100.00;99811.63;5000523;28;20481;-79
2023/07/02 05:55:59;;;;;;;18.83;8.85;;;14.60;99.90;;;18.36;100.00;99813.19;4999377;28;20034;-79
2023/07/02 05:58:24;;;;;;;18.17;8.25;;;14.60;99.90;;;18.20;100.00;99807.78;4994868;28;20685;-78
2023/07/02 06:00:50;;;;;;;16.05;8.10;;;14.50;99.90;;;18.12;100.00;99811.16;4976757;28;20038;-81
2023/07/02 06:03:20;;;;;;;16.80;8.57;;;14.40;99.90;;;18.15;100.00;99818.03;4994729;28;20486;-78
2023/07/02 06:05:49;;;;;;;17.60;8.65;;;14.20;99.90;;;18.19;100.00;99819.94;4995046;28;20854;-79
2023/07/02 06:08:16;;;;;;;14.90;7.88;;;14.30;99.90;;;18.46;100.00;99820.56;4995550;28;20467;-80
2023/07/02 06:10:45;;;;;;;20.45;8.98;;;14.50;99.90;;;18.73;100.00;99824.72;4999636;28;20593;-81
2023/07/02 06:13:11;;;;;;;15.65;8.00;;;14.70;99.90;;;18.99;100.00;99822.53;5005100;28;20117;-82
2023/07/02 06:15:38;;;;;;;17.98;8.20;;;15.00;99.90;;;19.22;100.00;99820.88;4976945;28;20038;-84
2023/07/02 06:18:04;;;;;;;16.05;7.30;;;15.20;99.90;;;19.00;100.00;99826.94;4995571;28;20069;-82
2023/07/02 06:20:30;;;;;;;14.43;6.80;;;15.50;99.90;;;19.13;100.00;99816.31;4995961;28;20456;-83
2023/07/02 06:22:55;;;;;;;16.58;6.93;;;15.70;99.90;;;19.42;100.00;99802.38;4993167;28;20135;-82
2023/07/02 06:25:21;;;;;;;15.65;6.63;;;15.90;99.90;;;19.30;100.00;99811.09;4996386;28;20045;-85
2023/07/02 06:27:48;;;;;;;14.13;5.82;;;16.10;99.90;;;19.02;100.00;99805.34;4994622;28;20034;-78
2023/07/02 06:30:13;;;;;;;15.93;6.60;;;16.20;99.90;;;19.76;100.00;99812.44;4997257;28;20509;-78
2023/07/02 06:32:40;;;;;;;18.13;5.95;;;16.40;99.90;;;20.02;100.00;99814.00;4974581;28;20030;-78
2023/07/02 06:35:06;;;;;;;16.55;7.05;;;16.50;99.90;;;20.36;100.00;99819.28;5003117;28;20134;-81
2023/07/02 06:37:32;;;;;;;14.70;5.85;;;16.60;99.90;;;19.82;100.00;99814.00;4995318;28;20536;-78
2023/07/02 06:39:58;;;;;;;18.70;6.38;;;16.60;99.90;;;19.80;100.00;99809.88;4981092;28;20030;-78
2023/07/02 06:42:25;;;;;;;14.18;6.20;;;16.60;99.90;;;19.77;100.00;99816.84;4996076;28;20042;-78
2023/07/02 06:44:51;;;;;;;16.65;6.53;;;16.60;99.90;;;19.92;100.00;99826.91;4996079;28;20039;-79
2023/07/02 06:47:17;;;;;;;18.70;6.43;;;16.80;99.90;;;19.76;100.00;99817.13;5002352;28;20033;-79
2023/07/02 06:49:43;;;;;;;14.55;5.95;;;16.90;99.90;;;19.82;100.00;99821.47;4995349;28;20490;-80
2023/07/02 06:52:09;;;;;;;14.70;5.93;;;16.90;99.90;;;19.58;100.00;99824.31;4995807;28;20053;-80
2023/07/02 06:54:35;;;;;;;14.63;6.07;;;16.90;99.90;;;19.35;100.00;99816.56;4996090;28;20034;-81
2023/07/02 06:57:02;;;;;;;16.27;5.88;;;16.90;99.90;;;20.41;98.99;99827.50;4983816;28;20184;-79
2023/07/02 06:59:28;;;;;;;18.75;6.20;;;17.10;99.90;;;19.87;98.54;99829.69;5000476;28;20474;-81
2023/07/02 07:01:55;;;;;;;16.60;6.28;;;17.20;99.90;;;20.34;94.63;99831.78;5004273;28;20034;-80
2023/07/02 07:04:20;;;;;;;14.10;6.07;;;17.30;99.90;;;19.69;89.93;99818.34;4999030;28;20056;-80
2023/07/02 07:06:46;;;;;;;19.05;6.20;;;17.40;99.90;;;20.39;90.06;99834.44;4998788;28;20470;-81
2023/07/02 07:09:12;;;;;;;16.38;6.78;;;17.40;99.90;;;20.25;89.81;99831.63;5000138;28;20439;-82
2023/07/02 07:11:38;;;;;;;15.55;6.43;;;17.40;99.90;;;20.64;93.38;99835.13;4978622;28;20040;-83
2023/07/02 07:14:03;;;;;;;16.80;6.30;;;17.50;99.90;;;20.69;91.47;99837.84;4994738;28;20038;-82
2023/07/02 07:16:29;;;;;;;18.55;6.60;;;17.70;99.90;;;21.11;88.44;99827.63;4994251;28;20030;-81
2023/07/02 07:18:55;;;;;;;16.23;5.75;;;17.80;99.90;;;21.48;87.73;99832.44;4982588;28;20054;-84
2023/07/02 07:21:21;;;;;;;13.45;6.15;;;18.20;99.90;;;21.58;85.68;99839.72;4993147;28;20046;-84
2023/07/02 07:23:46;;;;;;;17.00;5.85;;;18.50;99.90;;;21.43;81.29;99852.78;4992653;28;20034;-81
2023/07/02 07:26:12;;;;;;;16.00;6.20;;;18.50;99.90;;;20.58;77.28;99842.75;4995962;28;20081;-82
2023/07/02 07:28:38;;;;;;;16.95;5.85;;;18.20;99.90;;;20.60;79.52;99845.19;5001015;28;20035;-83
2023/07/02 07:31:04;;;;;;;14.88;5.82;;;18.20;99.90;;;21.48;75.51;99857.41;4996544;28;20046;-85
2023/07/02 07:33:29;;;;;;;15.00;6.22;;;18.20;99.90;;;21.31;75.89;99853.31;4998081;28;20127;-83
2023/07/02 07:35:55;;;;;;;14.80;6.18;;;18.30;99.90;;;21.05;78.91;99856.59;4998931;28;20035;-82
2023/07/02 07:38:21;;;;;;;16.83;6.57;;;18.40;99.90;;;21.46;70.92;99848.56;4994943;28;20042;-83
2023/07/02 07:40:46;;;;;;;19.17;6.28;;;18.50;99.90;;;21.42;68.06;99848.38;5005928;28;20390;-83
2023/07/02 07:43:12;;;;;;;16.20;6.25;;;18.60;99.90;;;20.91;69.86;99848.25;4991251;28;20046;-82
2023/07/02 07:45:38;;;;;;;13.77;6.03;;;18.40;99.90;;;21.54;67.08;99843.13;5008242;28;20109;-81
2023/07/02 07:48:07;;;;;;;20.13;5.97;;;18.60;99.90;;;21.68;66.24;99834.78;5009683;28;20060;-84
2023/07/02 07:50:33;;;;;;;19.48;6.30;;;18.70;99.90;;;21.65;63.02;99835.41;4996683;28;20153;-78
2023/07/02 07:52:59;;;;;;;17.92;6.07;;;19.00;99.90;;;22.16;60.20;99834.56;4993377;28;20046;-78
2023/07/02 07:55:25;;;;;;;18.85;6.15;;;19.20;99.90;;;22.30;57.18;99832.53;5000289;28;20550;-80
2023/07/02 07:57:52;;;;;;;18.38;6.40;;;19.60;99.90;;;21.62;58.33;99860.19;4995267;28;20034;-80
2023/07/02 08:00:18;;;;;;;16.10;6.38;;;19.40;99.90;;;21.02;59.54;99861.91;4998987;28;20042;-80
2023/07/02 08:02:47;;;;;;;15.32;5.80;;;18.90;99.90;;;20.95;60.62;99868.69;5009249;28;20065;-79
2023/07/02 08:05:13;;;;;;;17.33;6.40;;;18.70;99.90;;;21.54;59.75;99872.81;5006646;28;20054;-83
2023/07/02 08:07:40;;;;;;;16.40;6.45;;;19.00;99.90;;;21.37;60.66;99874.25;4992979;28;20047;-79
2023/07/02 08:10:07;;;;;;;15.05;6.70;;;19.00;99.90;;;21.21;60.07;99881.22;5004951;28;20034;-81
2023/07/02 08:12:34;;;;;;;16.65;6.35;;;19.10;99.90;;;20.89;60.17;99871.84;4995533;28;20454;-80
2023/07/02 08:15:00;;;;;;;18.10;6.57;;;18.80;99.90;;;19.95;61.12;99848.44;4994404;28;20354;-83
2023/07/02 08:17:26;;;;;;;18.70;6.63;;;18.50;99.90;;;20.54;62.56;99886.00;5001821;28;20044;-86
2023/07/02 08:19:51;;;;;;;19.58;6.30;;;18.50;99.90;;;20.57;62.25;99879.88;4979680;28;20050;-78
2023/07/02 08:22:17;;;;;;;19.10;6.50;;;18.60;99.90;;;21.18;59.77;99882.69;4979713;28;20072;-79
2023/07/02 08:24:43;;;;;;;20.00;6.50;;;18.70;99.90;;;20.52;61.31;99900.16;4977201;28;20034;-82
2023/07/02 08:27:10;;;;;;;19.70;6.50;;;18.60;99.90;;;20.11;63.21;99895.25;4974183;28;20039;-78
2023/07/02 08:29:36;;;;;;;18.63;6.85;;;18.40;99.90;;;20.81;63.19;99907.47;4981931;28;20130;-83
2023/07/02 08:32:02;;;;;;;15.25;6.57;;;18.40;99.90;;;21.15;62.78;99908.25;4973176;28;20027;-80
2023/07/02 08:34:28;;;;;;;16.50;6.53;;;18.60;99.90;;;20.16;63.45;99913.75;4978097;28;20093;-81
2023/07/02 08:36:53;;;;;;;21.40;6.90;;;18.50;99.90;;;21.11;63.33;99894.19;4978884;28;20034;-81
2023/07/02 08:39:19;;;;;;;17.67;6.45;;;18.60;99.90;;;22.03;59.20;99884.28;4956120;28;20047;-82
2023/07/02 08:41:47;;;;;;;15.40;6.38;;;19.20;99.90;;;21.38;54.67;99894.53;4972571;28;20039;-79
2023/07/02 08:44:18;;;;;;;14.65;6.32;;;19.20;98.10;;;21.70;53.72;99882.47;4984916;28;20455;-80
2023/07/02 08:46:44;;;;;;;14.52;6.85;;;19.20;98.20;;;22.72;53.90;99893.47;4977796;28;20372;-78
2023/07/02 08:49:10;;;;;;;14.60;6.65;;;19.70;99.60;;;22.21;51.62;99873.31;4963631;28;20054;-81
2023/07/02 08:51:36;;;;;;;16.85;6.43;;;19.90;97.10;;;22.81;47.59;99863.78;4986626;28;20030;-79
2023/07/02 08:54:03;;;;;;;16.65;6.15;;;20.10;94.60;;;21.83;47.90;99880.81;4988132;28;20038;-80
2023/07/02 08:56:29;;;;;;;19.00;6.50;;;20.10;93.30;;;22.50;48.95;99886.78;4989657;28;20066;-79
2023/07/02 08:58:55;;;;;;;17.45;6.63;;;20.00;94.50;;;23.06;48.97;99889.25;4987219;28;20039;-78
2023/07/02 09:01:21;;;;;;;19.17;7.07;;;20.10;95.20;;;21.61;50.58;99906.53;4976094;28;20034;-80
2023/07/02 09:03:49;;;;;;;16.20;6.53;;;19.60;94.70;;;21.69;51.31;99918.88;4987022;28;20030;-78
2023/07/02 09:06:18;;;;;;;16.58;6.55;;;19.30;95.60;;;21.52;52.08;99916.72;4981136;28;20042;-78
2023/07/02 09:08:43;;;;;;;17.92;6.38;;;19.10;96.30;;;22.22;49.99;99886.06;4979387;28;20529;-78
2023/07/02 09:11:19;;;;;;;19.52;6.70;;;19.40;95.80;;;22.20;45.75;99866.94;4980529;28;20042;-78
2023/07/02 09:13:58;;;;;;;17.23;6.15;;;19.60;92.60;;;22.09;45.58;99860.78;4983266;28;20038;-79
2023/07/02 09:16:36;;;;;;;19.13;6.88;;;19.80;92.10;;;22.55;45.69;99874.75;4980359;28;20039;-79
2023/07/02 09:19:08;;;;;;;16.45;6.38;;;20.00;92.60;;;22.25;44.80;99864.03;4986889;28;20086;-78
2023/07/02 09:21:48;;;;;;;13.98;6.13;;;20.20;91.10;;;22.68;45.29;99889.69;4995601;28;20066;-79
2023/07/02 09:24:21;;;;;;;15.77;6.50;;;20.30;91.90;;;23.07;44.30;99873.38;4995173;28;20053;-81
2023/07/02 09:26:49;;;;;;;15.95;6.45;;;20.50;91.10;;;22.72;43.78;99874.03;4996034;28;20521;-80
2023/07/02 09:29:30;;;;;;;14.48;6.63;;;20.40;90.40;;;23.08;42.32;99848.06;4994943;28;20052;-80
2023/07/02 09:32:07;;;;;;;13.73;6.38;;;20.70;88.70;;;23.39;41.90;99854.72;5006965;28;20115;-79
2023/07/02 09:34:36;;;;;;;18.30;7.47;;;20.80;88.80;;;23.54;42.57;99867.34;4998637;28;20042;-80
2023/07/02 09:37:07;;;;;;;16.15;6.78;;;20.90;90.20;;;23.54;40.66;99857.06;5000641;28;20068;-82
2023/07/02 09:39:36;;;;;;;18.98;6.57;;;21.00;86.50;;;23.04;40.54;99860.94;5005423;28;20086;-81
2023/07/02 09:42:07;;;;;;;16.55;6.30;;;21.00;84.30;;;21.39;44.09;99899.75;5002738;28;20091;-80
2023/07/02 09:44:34;;;;;;;12.25;6.47;;;20.10;86.50;;;22.89;43.48;99886.41;5006211;28;20112;-81
2023/07/02 09:47:05;;;;;;;14.20;6.25;;;20.20;89.70;;;23.16;44.25;99904.03;5002648;28;20042;-82
2023/07/02 09:49:41;;;;;;;18.60;6.60;;;20.40;90.70;;;22.94;42.46;99855.66;4996184;28;20041;-84
2023/07/02 09:52:11;;;;;;;14.30;6.30;;;20.50;87.40;;;22.90;41.25;99871.34;4995872;28;20035;-82
2023/07/02 09:54:38;;;;;;;12.60;6.30;;;20.70;85.40;;;22.51;41.42;99862.63;4983804;28;20115;-83
2023/07/02 09:57:08;;;;;;;21.50;6.47;;;20.50;84.60;;;22.82;41.01;99872.94;5001723;28;20034;-83
2023/07/02 09:59:35;;;;;;;16.02;7.47;;;20.60;85.30;;;22.50;41.52;99875.69;4994374;28;20168;-82
2023/07/02 10:02:00;;;;;;;14.65;6.53;;;20.50;84.10;;;22.31;41.77;99875.03;4978237;28;20113;-78
2023/07/02 10:04:26;;;;;;;14.68;6.85;;;20.20;84.90;;;22.27;42.73;99883.97;5005859;28;20073;-81
2023/07/02 10:06:57;;;;;;;16.83;6.40;;;20.00;86.60;;;23.18;42.02;99871.16;4990921;28;20035;-77
2023/07/02 10:09:41;;;;;;;15.93;6.60;;;20.30;87.60;;;23.35;41.54;99885.16;5010713;28;20044;-81